Novi, MI (48374)

08:43 EST 3. Prosinec 2016 (GMT -0500)
Edinborough | | Change Station

Výška 991 ft 42.46 °N, 83.52 °W | Updated 1 second ago

Overcast
Zataženo
33.2 °F
Pocit jako 33 °F
S
0.0
Vítr proměnlivý Vítr od západní

Dnes
Vysoké -- | Nízké -- °F
--% Možnost srážek
Včera
Vysoké -- | Nízké -- °F
Precip. -- inčů
Tlak 30.29 inčů
Viditelnost 10.0 mílí
Zataženo Skoro zataženo 2400 ft
Zataženo 3700 ft
Ochlazování větrem 33 °F
Rosný bod 29 °F
Vlhkost 85%
Dešťové srážky 0.00 inčů
Sněhová pokrývka Není k dispozici
7:46 AM 5:01 PM
Dorůstající srpek, 15% visible
METAR KPTK 031253Z 26006KT 10SM BKN024 OVC037 01/M02 A3026 RMK AO2 SLP257 T00111022 $
Tlak 30.29 inčů
Viditelnost 10.0 mílí
Zataženo Skoro zataženo 2400 ft
Zataženo 3700 ft
Ochlazování větrem 33 °F
Rosný bod 29 °F
Vlhkost 85%
Dešťové srážky 0.00 inčů
Sněhová pokrývka Není k dispozici
7:46 AM 5:01 PM
Dorůstající srpek, 15% visible
METAR KPTK 031253Z 26006KT 10SM BKN024 OVC037 01/M02 A3026 RMK AO2 SLP257 T00111022 $

10-Day Weather Forecast

Almanac

Astronomie

Dec. 03, 2016 Východ Západ
Skutečný čas
Občanský soumrak
Námořní soumrak
Astronomický soumrak
Měsíc
Délka denního světla
Délka dne
Tomorrow will be .
, % of the Moon is Illuminated

Dnešní extrémy

State Highs State Lows

Community

WunderPhotos

Upload Photos

1,955,446 snímků staženo!

WunderBlog® & News

Nearby

Kvalita ovzduší

  Kvalita ovzduší Index kvality ovzduší Polutant
Not available.

Výška sněhu

Station Hloubka Nadmořská výška

Seizmická činnost

Město Distance Mag. Čas & datum
Minimální zobrazený rozsah je 2.5.

Pobřežní teplota vody

Lokalita Teplota

Stations

Poblíž povětrnostní stanice

Lokace stanice Tepl. Ochlazování větrem Rosný bod Vlhkost Vítr Precip. Výška Čas hlášení Typ
                   

Watches & Warnings

There are currently no watches in effect.